createdAt,value
2022-12-12T00:00:05.199Z,71.30
2022-12-12T00:01:05.352Z,65.30
2022-12-12T00:02:05.536Z,64.50
2022-12-12T00:03:05.765Z,65.90
2022-12-12T00:04:05.840Z,62.70
2022-12-12T00:05:06.004Z,62.60
2022-12-12T00:06:06.189Z,62.10
2022-12-12T00:07:06.361Z,60.50
2022-12-12T00:08:06.587Z,58.90
2022-12-12T00:09:06.738Z,58.40
2022-12-12T00:10:06.912Z,59.30
2022-12-12T00:11:07.083Z,63.30
2022-12-12T00:12:07.269Z,62.70
2022-12-12T00:13:07.434Z,58.50
2022-12-12T00:14:07.618Z,58.30
2022-12-12T00:15:07.787Z,59.20
2022-12-12T00:16:08.025Z,57.90
2022-12-12T00:17:08.098Z,61.60
2022-12-12T00:18:08.308Z,58.00
2022-12-12T00:19:08.489Z,60.20
2022-12-12T00:20:08.668Z,56.60
2022-12-12T00:21:08.828Z,57.50
2022-12-12T00:22:09.004Z,57.20
2022-12-12T00:23:09.176Z,59.40
2022-12-12T00:24:09.355Z,56.70
2022-12-12T00:25:09.719Z,54.60
2022-12-12T00:26:09.665Z,59.20
2022-12-12T00:27:09.845Z,58.80
2022-12-12T00:28:10.027Z,57.90
2022-12-12T00:29:10.192Z,56.60
2022-12-12T00:30:10.397Z,56.00
2022-12-12T00:31:10.626Z,55.50
2022-12-12T00:32:10.732Z,56.60
2022-12-12T00:33:10.910Z,63.90
2022-12-12T00:34:11.097Z,61.80
2022-12-12T00:35:11.592Z,60.40
2022-12-12T00:36:11.451Z,56.00
2022-12-12T00:37:11.621Z,54.60
2022-12-12T00:38:11.802Z,53.80
2022-12-12T00:39:18.025Z,62.70
2022-12-12T00:40:13.090Z,56.70
2022-12-12T00:41:12.243Z,56.10
2022-12-12T00:42:12.426Z,58.70
2022-12-12T00:43:12.599Z,55.60
2022-12-12T00:44:12.777Z,55.40
2022-12-12T00:45:13.088Z,57.60
2022-12-12T00:46:13.204Z,55.80
2022-12-12T00:47:13.231Z,53.70
2022-12-12T00:48:13.415Z,60.00
2022-12-12T00:49:13.584Z,56.90
2022-12-12T00:50:13.775Z,57.50
2022-12-12T00:51:13.951Z,59.70
2022-12-12T00:52:14.137Z,62.00
2022-12-12T00:53:14.327Z,60.70
2022-12-12T00:54:14.522Z,55.90
2022-12-12T00:55:14.982Z,61.10
2022-12-12T00:56:14.923Z,62.40
2022-12-12T00:57:15.114Z,57.60
2022-12-12T00:58:15.306Z,59.30
2022-12-12T00:59:15.485Z,58.20
2022-12-12T01:00:15.670Z,59.20
2022-12-12T01:01:15.878Z,60.20
2022-12-12T01:02:16.051Z,58.70
2022-12-12T01:03:16.285Z,58.50
2022-12-12T01:04:16.354Z,59.50
2022-12-12T01:05:16.530Z,62.10
2022-12-12T01:06:16.718Z,63.70
2022-12-12T01:07:16.902Z,60.70
2022-12-12T01:08:17.128Z,65.10
2022-12-12T01:09:17.199Z,63.00
2022-12-12T01:10:17.387Z,63.40
2022-12-12T01:11:17.555Z,62.30
2022-12-12T01:12:17.732Z,58.80
2022-12-12T01:13:17.921Z,64.60
2022-12-12T01:14:18.110Z,64.50
2022-12-12T01:15:18.277Z,62.10
2022-12-12T01:16:18.526Z,62.60
2022-12-12T01:17:18.585Z,63.30
2022-12-12T01:18:18.776Z,65.60
2022-12-12T01:19:18.998Z,60.50
2022-12-12T01:20:19.071Z,65.70
2022-12-12T01:21:19.233Z,63.70
2022-12-12T01:22:19.416Z,62.60
2022-12-12T01:23:19.589Z,61.20
2022-12-12T01:24:19.757Z,64.60
2022-12-12T01:25:19.933Z,64.80
2022-12-12T01:26:20.115Z,62.00
2022-12-12T01:27:20.281Z,61.70
2022-12-12T01:28:20.460Z,63.70
2022-12-12T01:29:20.621Z,60.30
2022-12-12T01:30:20.801Z,65.60
2022-12-12T01:31:21.066Z,62.80
2022-12-12T01:32:21.181Z,66.70
2022-12-12T01:33:21.360Z,66.10
2022-12-12T01:34:21.539Z,63.60
2022-12-12T01:35:21.709Z,62.50
2022-12-12T01:36:21.893Z,64.90
2022-12-12T01:37:22.058Z,65.10
2022-12-12T01:38:22.249Z,65.50
2022-12-12T01:39:22.417Z,62.80
2022-12-12T01:40:22.612Z,65.00
2022-12-12T01:41:22.786Z,69.10
2022-12-12T01:42:22.964Z,67.70
2022-12-12T01:43:23.137Z,65.20
2022-12-12T01:44:23.316Z,63.90
2022-12-12T01:45:23.486Z,65.30
2022-12-12T01:46:23.703Z,68.50
2022-12-12T01:47:23.769Z,66.90
2022-12-12T01:48:23.950Z,66.30
2022-12-12T01:49:24.128Z,66.70
2022-12-12T01:50:24.308Z,68.60
2022-12-12T01:51:24.483Z,69.30
2022-12-12T01:52:24.666Z,66.60
2022-12-12T01:53:24.832Z,63.20
2022-12-12T01:54:25.002Z,67.30
2022-12-12T01:55:25.188Z,63.40
2022-12-12T01:56:25.374Z,64.40
2022-12-12T01:57:25.556Z,66.30
2022-12-12T01:58:25.749Z,67.60
2022-12-12T01:59:25.953Z,66.40
2022-12-12T02:00:26.177Z,70.20
2022-12-12T02:01:26.238Z,64.40
2022-12-12T02:02:26.462Z,69.20
2022-12-12T02:03:26.631Z,64.20
2022-12-12T02:04:26.828Z,68.40
2022-12-12T02:05:27.007Z,67.60
2022-12-12T02:06:27.185Z,70.00
2022-12-12T02:07:27.388Z,68.00
2022-12-12T02:08:27.611Z,68.10
2022-12-12T02:09:27.762Z,65.30
2022-12-12T02:10:27.926Z,65.70
2022-12-12T02:11:28.085Z,65.80
2022-12-12T02:12:28.285Z,63.70
2022-12-12T02:13:28.434Z,64.50
2022-12-12T02:14:28.615Z,63.30
2022-12-12T02:15:28.778Z,63.80
2022-12-12T02:16:29.002Z,60.10
2022-12-12T02:17:29.043Z,67.30
2022-12-12T02:18:29.234Z,61.50
2022-12-12T02:19:29.392Z,61.10
2022-12-12T02:20:29.575Z,60.50
2022-12-12T02:21:29.743Z,59.30
2022-12-12T02:22:29.921Z,61.90
2022-12-12T02:23:30.083Z,59.80
2022-12-12T02:24:30.260Z,60.70
2022-12-12T02:25:30.420Z,62.60
2022-12-12T02:26:30.600Z,63.30
2022-12-12T02:27:30.776Z,60.70
2022-12-12T02:28:30.943Z,63.00
2022-12-12T02:29:31.099Z,58.70
2022-12-12T02:30:31.277Z,58.10
2022-12-12T02:31:31.571Z,60.70
2022-12-12T02:32:31.624Z,60.60
2022-12-12T02:33:31.787Z,60.70
2022-12-12T02:34:31.958Z,63.30
2022-12-12T02:35:32.116Z,60.30
2022-12-12T02:36:32.291Z,61.60
2022-12-12T02:37:32.477Z,61.50
2022-12-12T02:38:32.637Z,63.10
2022-12-12T02:39:32.811Z,64.10
2022-12-12T02:40:32.970Z,63.00
2022-12-12T02:41:33.144Z,63.60
2022-12-12T02:42:33.298Z,62.00
2022-12-12T02:43:33.465Z,61.60
2022-12-12T02:44:33.620Z,63.90
2022-12-12T02:45:33.785Z,61.10
2022-12-12T02:46:34.054Z,67.10
2022-12-12T02:47:34.133Z,63.30
2022-12-12T02:48:34.291Z,65.30
2022-12-12T02:49:34.452Z,64.20
2022-12-12T02:50:34.615Z,65.10
2022-12-12T02:51:34.775Z,61.50
2022-12-12T02:52:34.950Z,63.70
2022-12-12T02:53:35.121Z,64.10
2022-12-12T02:54:35.280Z,63.50
2022-12-12T02:55:36.676Z,66.90
2022-12-12T02:56:35.580Z,68.00
2022-12-12T02:57:35.773Z,64.80
2022-12-12T02:58:35.933Z,64.90
2022-12-12T02:59:36.103Z,61.40
2022-12-12T03:00:36.310Z,68.60
2022-12-12T03:01:36.492Z,60.20
2022-12-12T03:02:36.666Z,62.40
2022-12-12T03:03:36.835Z,62.90
2022-12-12T03:04:37.000Z,60.50
2022-12-12T03:05:37.165Z,61.00
2022-12-12T03:06:40.936Z,61.00
2022-12-12T03:07:37.454Z,61.10
2022-12-12T03:08:37.610Z,65.20
2022-12-12T03:09:37.785Z,60.70
2022-12-12T03:10:37.938Z,60.70
2022-12-12T03:11:38.119Z,63.20
2022-12-12T03:12:38.283Z,61.30
2022-12-12T03:13:38.451Z,61.00
2022-12-12T03:14:38.604Z,59.40
2022-12-12T03:15:38.773Z,61.00
2022-12-12T03:16:38.975Z,56.90
2022-12-12T03:17:39.155Z,61.70
2022-12-12T03:18:39.319Z,63.10
2022-12-12T03:19:39.478Z,57.50
2022-12-12T03:20:39.636Z,59.10
2022-12-12T03:21:39.800Z,55.90
2022-12-12T03:22:40.920Z,56.40
2022-12-12T03:23:40.087Z,58.10
2022-12-12T03:24:40.252Z,55.00
2022-12-12T03:25:40.411Z,52.90
2022-12-12T03:26:40.570Z,52.00
2022-12-12T03:27:40.743Z,52.00
2022-12-12T03:28:40.903Z,56.90
2022-12-12T03:29:41.078Z,53.30
2022-12-12T03:30:41.236Z,56.70
2022-12-12T03:31:41.472Z,53.50
2022-12-12T03:32:41.546Z,54.50
2022-12-12T03:33:41.701Z,50.00
2022-12-12T03:34:41.853Z,53.10
2022-12-12T03:35:42.010Z,53.90
2022-12-12T03:36:42.173Z,53.80
2022-12-12T03:37:42.358Z,55.60
2022-12-12T03:38:42.513Z,55.40
2022-12-12T03:39:42.686Z,54.70
2022-12-12T03:40:42.827Z,53.90
2022-12-12T03:41:42.991Z,54.70
2022-12-12T03:42:43.165Z,59.40
2022-12-12T03:43:43.332Z,56.60
2022-12-12T03:44:43.483Z,55.00
2022-12-12T03:45:43.671Z,58.40
2022-12-12T03:46:43.803Z,58.50
2022-12-12T03:47:43.990Z,59.30
2022-12-12T03:48:44.155Z,58.90
2022-12-12T03:49:44.324Z,61.80
2022-12-12T03:50:44.476Z,56.70
2022-12-12T03:51:44.650Z,62.60
2022-12-12T03:52:44.824Z,60.10
2022-12-12T03:53:44.987Z,60.50
2022-12-12T03:54:45.143Z,60.90
2022-12-12T03:55:45.307Z,61.80
2022-12-12T03:56:45.472Z,59.10
2022-12-12T03:57:45.664Z,57.00
2022-12-12T03:58:45.829Z,61.60
2022-12-12T03:59:46.001Z,57.20
2022-12-12T04:00:46.185Z,62.60
2022-12-12T04:01:46.335Z,62.40
2022-12-12T04:02:46.504Z,59.90
2022-12-12T04:03:53.699Z,62.60
2022-12-12T04:04:46.809Z,60.10
2022-12-12T04:05:46.983Z,60.30
2022-12-12T04:06:47.149Z,59.60
2022-12-12T04:07:47.363Z,60.90
2022-12-12T04:08:47.496Z,60.70
2022-12-12T04:09:47.690Z,59.00
2022-12-12T04:10:47.827Z,60.60
2022-12-12T04:11:47.995Z,62.10
2022-12-12T04:12:48.170Z,55.80
2022-12-12T04:13:48.386Z,56.80
2022-12-12T04:14:48.546Z,56.00
2022-12-12T04:15:48.733Z,59.20
2022-12-12T04:16:48.926Z,58.20
2022-12-12T04:17:49.076Z,56.70
2022-12-12T04:18:49.242Z,55.90
2022-12-12T04:19:49.458Z,58.00
2022-12-12T04:20:49.588Z,56.40
2022-12-12T04:21:49.769Z,55.50
2022-12-12T04:22:49.943Z,54.20
2022-12-12T04:23:50.167Z,52.60
2022-12-12T04:24:50.192Z,56.10
2022-12-12T04:25:50.351Z,54.60
2022-12-12T04:26:50.505Z,50.10
2022-12-12T04:27:50.688Z,51.20
2022-12-12T04:28:50.841Z,51.20
2022-12-12T04:29:51.009Z,51.50
2022-12-12T04:30:51.223Z,52.20
2022-12-12T04:31:51.362Z,47.00
2022-12-12T04:32:51.380Z,49.80
2022-12-12T04:33:51.700Z,48.70
2022-12-12T04:34:51.638Z,48.30
2022-12-12T04:35:51.822Z,46.60
2022-12-12T04:36:51.979Z,46.40
2022-12-12T04:37:52.167Z,48.50
2022-12-12T04:38:52.325Z,47.20
2022-12-12T04:39:52.718Z,48.50
2022-12-12T04:40:52.625Z,47.50
2022-12-12T04:41:52.803Z,44.90
2022-12-12T04:42:52.972Z,43.00
2022-12-12T04:43:53.143Z,43.30
2022-12-12T04:44:53.295Z,42.00
2022-12-12T04:45:53.563Z,42.30
2022-12-12T04:46:53.593Z,39.30
2022-12-12T04:47:53.827Z,40.40
2022-12-12T04:48:54.006Z,37.10
2022-12-12T04:49:54.062Z,35.60
2022-12-12T04:50:54.235Z,39.20
2022-12-12T04:51:54.409Z,40.10
2022-12-12T04:52:54.563Z,38.70
2022-12-12T04:53:54.734Z,38.50
2022-12-12T04:54:54.904Z,39.80
2022-12-12T04:55:55.068Z,39.20
2022-12-12T04:56:55.232Z,37.20
2022-12-12T04:57:55.441Z,38.40
2022-12-12T04:58:55.492Z,39.70
2022-12-12T04:59:55.674Z,38.00
2022-12-12T05:00:55.883Z,36.30
2022-12-12T05:01:56.029Z,38.30
2022-12-12T05:02:56.198Z,41.50
2022-12-12T05:03:56.374Z,38.10
2022-12-12T05:04:56.532Z,35.20
2022-12-12T05:05:56.727Z,32.80
2022-12-12T05:06:56.889Z,35.70
2022-12-12T05:07:57.137Z,33.50
2022-12-12T05:08:57.151Z,34.30
2022-12-12T05:09:57.337Z,33.10
2022-12-12T05:10:57.485Z,30.80
2022-12-12T05:11:57.650Z,34.20
2022-12-12T05:12:57.814Z,35.30
2022-12-12T05:13:57.974Z,33.90
2022-12-12T05:14:58.124Z,36.50
2022-12-12T05:15:58.332Z,32.40
2022-12-12T05:16:58.441Z,29.90
2022-12-12T05:17:58.487Z,31.00
2022-12-12T05:18:58.648Z,30.80
2022-12-12T05:19:58.813Z,32.50
2022-12-12T05:20:58.967Z,29.80
2022-12-12T05:21:59.125Z,30.60
2022-12-12T05:22:59.300Z,31.90
2022-12-12T05:23:59.509Z,36.20
2022-12-12T05:24:59.594Z,29.00
2022-12-12T05:25:59.771Z,30.50
2022-12-12T05:26:59.938Z,30.40
2022-12-12T05:28:00.109Z,33.30
2022-12-12T05:29:06.744Z,31.00
2022-12-12T05:30:01.732Z,26.40
2022-12-12T05:31:00.711Z,32.70
2022-12-12T05:32:00.898Z,27.70
2022-12-12T05:33:01.048Z,28.40
2022-12-12T05:34:02.124Z,33.00
2022-12-12T05:35:01.390Z,26.70
2022-12-12T05:36:01.573Z,25.70
2022-12-12T05:37:02.163Z,23.50
2022-12-12T05:38:01.851Z,26.40
2022-12-12T05:39:02.013Z,26.20
2022-12-12T05:40:02.171Z,25.50
2022-12-12T05:41:02.355Z,25.10
2022-12-12T05:42:02.524Z,25.00
2022-12-12T05:43:02.710Z,23.20
2022-12-12T05:44:02.890Z,20.80
2022-12-12T05:45:03.042Z,22.30
2022-12-12T05:46:03.255Z,21.00
2022-12-12T05:47:03.436Z,19.20
2022-12-12T05:48:03.612Z,20.30
2022-12-12T05:49:03.767Z,19.00
2022-12-12T05:50:03.932Z,17.40
2022-12-12T05:51:04.088Z,19.10
2022-12-12T05:52:04.259Z,20.00
2022-12-12T05:53:04.422Z,20.30
2022-12-12T05:54:04.599Z,18.60
2022-12-12T05:55:04.766Z,17.10
2022-12-12T05:56:04.950Z,16.70
2022-12-12T05:57:05.108Z,18.20
2022-12-12T05:58:05.298Z,19.10
2022-12-12T05:59:05.457Z,16.20
2022-12-12T06:00:05.678Z,18.20
2022-12-12T06:01:05.827Z,15.30
2022-12-12T06:02:05.920Z,15.70
2022-12-12T06:03:06.076Z,15.90
2022-12-12T06:04:06.321Z,16.70
2022-12-12T06:05:06.383Z,17.20
2022-12-12T06:06:06.557Z,18.50
2022-12-12T06:07:06.717Z,18.00
2022-12-12T06:08:06.961Z,16.30
2022-12-12T06:09:07.058Z,15.30
2022-12-12T06:10:07.259Z,17.90
2022-12-12T06:11:07.454Z,17.30
2022-12-12T06:12:07.624Z,17.40
2022-12-12T06:13:07.802Z,15.80
2022-12-12T06:14:07.999Z,19.80
2022-12-12T06:15:08.177Z,17.00
2022-12-12T06:16:08.457Z,17.40
2022-12-12T06:17:08.494Z,18.20
2022-12-12T06:18:08.593Z,18.40
2022-12-12T06:19:08.650Z,17.60
2022-12-12T06:20:08.838Z,15.40
2022-12-12T06:21:09.025Z,17.00
2022-12-12T06:22:09.208Z,16.00
2022-12-12T06:23:09.545Z,18.80
2022-12-12T06:24:09.508Z,16.60
2022-12-12T06:25:09.713Z,15.10
2022-12-12T06:26:09.809Z,16.70
2022-12-12T06:27:09.880Z,15.30
2022-12-12T06:28:10.111Z,15.50
2022-12-12T06:29:10.188Z,14.40
2022-12-12T06:30:10.453Z,16.30
2022-12-12T06:31:12.026Z,13.20
2022-12-12T06:32:10.707Z,14.40
2022-12-12T06:33:10.846Z,14.00
2022-12-12T06:34:10.948Z,14.60
2022-12-12T06:35:11.323Z,15.30
2022-12-12T06:36:11.171Z,13.90
2022-12-12T06:37:17.039Z,13.30
2022-12-12T06:38:12.480Z,14.80
2022-12-12T06:39:11.555Z,14.40
2022-12-12T06:40:11.756Z,13.90
2022-12-12T06:41:11.951Z,13.80
2022-12-12T06:42:12.148Z,13.10
2022-12-12T06:43:12.256Z,14.80
2022-12-12T06:44:12.374Z,14.70
2022-12-12T06:45:12.828Z,14.40
2022-12-12T06:46:12.793Z,13.90
2022-12-12T06:47:12.780Z,16.40
2022-12-12T06:48:12.961Z,15.10
2022-12-12T06:49:13.130Z,14.80
2022-12-12T06:50:13.327Z,13.60
2022-12-12T06:51:13.491Z,14.50
2022-12-12T06:52:13.691Z,13.70
2022-12-12T06:53:13.920Z,14.60
2022-12-12T06:54:13.870Z,12.60
2022-12-12T06:55:14.418Z,17.40
2022-12-12T06:56:14.178Z,14.40
2022-12-12T06:57:14.354Z,15.80
2022-12-12T06:58:14.618Z,15.40
2022-12-12T06:59:14.650Z,16.00
2022-12-12T07:00:14.807Z,14.90
2022-12-12T07:01:15.076Z,14.90
2022-12-12T07:02:15.246Z,15.10
2022-12-12T07:03:15.344Z,15.70
2022-12-12T07:04:15.429Z,14.80
2022-12-12T07:05:15.793Z,17.80
2022-12-12T07:06:15.736Z,17.60
2022-12-12T07:07:15.906Z,18.50
2022-12-12T07:08:16.268Z,16.70
2022-12-12T07:09:16.311Z,16.20
2022-12-12T07:10:21.067Z,16.10
2022-12-12T07:11:17.501Z,14.40
2022-12-12T07:12:16.647Z,17.10
2022-12-12T07:13:16.872Z,17.10
2022-12-12T07:14:16.924Z,17.50
2022-12-12T07:15:17.107Z,17.50
2022-12-12T07:16:17.340Z,16.50
2022-12-12T07:17:17.411Z,18.10
2022-12-12T07:18:17.601Z,20.90
2022-12-12T07:19:17.773Z,16.70
2022-12-12T07:20:17.983Z,16.80
2022-12-12T07:21:18.165Z,15.00
2022-12-12T07:22:18.322Z,18.50
2022-12-12T07:23:18.517Z,16.50
2022-12-12T07:24:18.684Z,16.10
2022-12-12T07:25:18.906Z,18.10
2022-12-12T07:26:19.235Z,17.00
2022-12-12T07:27:21.758Z,17.90
2022-12-12T07:28:19.209Z,15.20
2022-12-12T07:29:19.517Z,16.50
2022-12-12T07:30:19.623Z,16.00
2022-12-12T07:31:19.785Z,16.10
2022-12-12T07:32:19.796Z,18.20
2022-12-12T07:33:20.063Z,15.70
2022-12-12T07:34:20.277Z,17.40
2022-12-12T07:35:20.419Z,17.40
2022-12-12T07:36:20.427Z,16.70
2022-12-12T07:37:20.537Z,18.00
2022-12-12T07:38:20.646Z,17.20
2022-12-12T07:39:21.286Z,17.60
2022-12-12T07:40:21.635Z,17.60
2022-12-12T07:41:21.070Z,16.80
2022-12-12T07:42:21.153Z,15.40
2022-12-12T07:43:21.371Z,22.00
2022-12-12T07:44:21.443Z,15.90
2022-12-12T07:45:22.111Z,17.30
2022-12-12T07:46:21.791Z,15.90
2022-12-12T07:47:21.882Z,14.00
2022-12-12T07:48:22.072Z,16.00
2022-12-12T07:49:22.300Z,15.30
2022-12-12T07:50:22.379Z,15.40
2022-12-12T07:51:22.617Z,14.80
2022-12-12T07:52:22.711Z,15.60
2022-12-12T07:53:22.847Z,16.60
2022-12-12T07:54:22.968Z,14.40
2022-12-12T07:55:23.049Z,15.00
2022-12-12T07:56:23.235Z,14.80
2022-12-12T07:57:23.589Z,15.80
2022-12-12T07:58:23.832Z,23.40
2022-12-12T07:59:23.689Z,19.20
2022-12-12T08:00:23.858Z,18.70
2022-12-12T08:01:24.288Z,21.30
2022-12-12T08:02:24.199Z,17.10
2022-12-12T08:03:24.685Z,16.60
2022-12-12T08:04:24.571Z,15.00
2022-12-12T08:05:24.644Z,18.30
2022-12-12T08:06:24.803Z,16.20
2022-12-12T08:07:25.510Z,16.90
2022-12-12T08:08:25.182Z,15.60
2022-12-12T08:09:26.083Z,16.50
2022-12-12T08:10:25.372Z,16.80
2022-12-12T08:11:25.563Z,13.00
2022-12-12T08:12:25.754Z,13.70
2022-12-12T08:13:25.909Z,12.80
2022-12-12T08:14:26.057Z,11.90
2022-12-12T08:15:26.149Z,16.00
2022-12-12T08:16:26.263Z,14.70
2022-12-12T08:17:26.349Z,15.00
2022-12-12T08:18:26.548Z,14.90
2022-12-12T08:19:26.839Z,16.50
2022-12-12T08:20:26.946Z,18.60
2022-12-12T08:21:27.241Z,16.20
2022-12-12T08:22:27.219Z,14.30
2022-12-12T08:23:27.430Z,13.10
2022-12-12T08:24:27.663Z,14.00
2022-12-12T08:25:27.827Z,17.80
2022-12-12T08:26:27.907Z,15.70
2022-12-12T08:27:28.077Z,16.10
2022-12-12T08:28:28.311Z,13.80
2022-12-12T08:29:28.445Z,14.00
2022-12-12T08:30:28.501Z,14.70
2022-12-12T08:31:28.714Z,15.70
2022-12-12T08:32:28.827Z,15.20
2022-12-12T08:33:29.073Z,15.60
2022-12-12T08:34:29.135Z,17.00
2022-12-12T08:35:29.312Z,14.50
2022-12-12T08:36:29.484Z,12.80
2022-12-12T08:37:29.724Z,13.60
2022-12-12T08:38:29.856Z,14.70
2022-12-12T08:39:29.938Z,13.20
2022-12-12T08:40:30.101Z,14.10
2022-12-12T08:41:30.307Z,13.00
2022-12-12T08:42:30.461Z,13.00
2022-12-12T08:43:30.581Z,12.80
2022-12-12T08:44:30.659Z,12.50
2022-12-12T08:45:30.751Z,13.10
2022-12-12T08:46:30.983Z,13.30
2022-12-12T08:47:31.040Z,12.70
2022-12-12T08:48:31.269Z,12.00
2022-12-12T08:49:31.333Z,12.00
2022-12-12T08:50:31.496Z,13.90
2022-12-12T08:51:31.728Z,19.20
2022-12-12T08:52:31.805Z,14.40
2022-12-12T08:53:31.998Z,15.30
2022-12-12T08:54:32.120Z,14.30
2022-12-12T08:55:32.213Z,14.30
2022-12-12T08:56:32.316Z,13.80
2022-12-12T08:57:32.397Z,16.90
2022-12-12T08:58:32.629Z,14.10
2022-12-12T08:59:32.684Z,14.70
2022-12-12T09:00:32.900Z,14.20
2022-12-12T09:01:33.048Z,13.10
2022-12-12T09:02:33.237Z,15.20
2022-12-12T09:03:33.274Z,13.20
2022-12-12T09:04:33.446Z,13.40
2022-12-12T09:05:33.602Z,14.30
2022-12-12T09:06:33.770Z,11.50
2022-12-12T09:07:33.932Z,11.90
2022-12-12T09:08:34.196Z,13.80
2022-12-12T09:09:34.316Z,13.50
2022-12-12T09:10:34.348Z,9.80
2022-12-12T09:11:34.518Z,14.60
2022-12-12T09:12:41.239Z,14.20
2022-12-12T09:13:35.889Z,14.20
2022-12-12T09:14:34.942Z,12.20
2022-12-12T09:15:35.105Z,14.20
2022-12-12T09:16:35.331Z,12.20
2022-12-12T09:17:35.513Z,12.30
2022-12-12T09:18:35.716Z,13.90
2022-12-12T09:19:35.819Z,12.20
2022-12-12T09:20:35.887Z,12.20
2022-12-12T09:21:36.078Z,10.20
2022-12-12T09:22:36.259Z,10.20
2022-12-12T09:23:36.446Z,10.90
2022-12-12T09:24:36.618Z,12.20
2022-12-12T09:25:41.284Z,13.20
2022-12-12T09:26:37.907Z,10.90
2022-12-12T09:27:37.097Z,10.40
2022-12-12T09:28:37.185Z,14.60
2022-12-12T09:29:37.301Z,15.60
2022-12-12T09:30:37.371Z,10.10
2022-12-12T09:31:37.624Z,11.30
2022-12-12T09:32:37.840Z,10.40
2022-12-12T09:33:37.885Z,15.40
2022-12-12T09:34:38.063Z,13.90
2022-12-12T09:35:38.265Z,9.90
2022-12-12T09:36:38.311Z,11.10
2022-12-12T09:37:38.583Z,9.50
2022-12-12T09:38:38.672Z,11.10
2022-12-12T09:39:38.831Z,10.60
2022-12-12T09:40:38.971Z,10.60
2022-12-12T09:41:39.131Z,9.20
2022-12-12T09:42:39.275Z,9.80
2022-12-12T09:43:39.440Z,9.20
2022-12-12T09:44:39.583Z,8.10
2022-12-12T09:45:39.807Z,10.40
2022-12-12T09:46:39.897Z,8.20
2022-12-12T09:47:40.091Z,10.90
2022-12-12T09:48:40.203Z,10.90
2022-12-12T09:49:43.695Z,11.40
2022-12-12T09:50:40.421Z,9.30
2022-12-12T09:51:40.580Z,8.90
2022-12-12T09:52:40.719Z,7.40
2022-12-12T09:53:40.920Z,7.20
2022-12-12T09:54:40.955Z,7.70
2022-12-12T09:55:41.175Z,8.30
2022-12-12T09:56:41.157Z,10.00
2022-12-12T09:57:41.269Z,10.50
2022-12-12T09:58:47.295Z,7.40
2022-12-12T09:59:42.563Z,7.80
2022-12-12T10:00:41.713Z,7.50
2022-12-12T10:01:41.903Z,7.60
2022-12-12T10:02:41.903Z,6.30
2022-12-12T10:03:42.024Z,9.60
2022-12-12T10:04:50.995Z,11.00
2022-12-12T10:05:42.224Z,8.30
2022-12-12T10:06:42.309Z,8.20
2022-12-12T10:07:42.421Z,7.40
2022-12-12T10:08:42.501Z,10.20
2022-12-12T10:09:42.581Z,13.00
2022-12-12T10:10:42.673Z,7.60
2022-12-12T10:11:42.733Z,12.80
2022-12-12T10:12:42.793Z,8.30
2022-12-12T10:13:42.884Z,6.20
2022-12-12T10:14:42.930Z,7.40
2022-12-12T10:15:43.091Z,7.60
2022-12-12T10:16:43.262Z,8.80
2022-12-12T10:17:43.306Z,10.50
2022-12-12T10:18:43.481Z,7.30
2022-12-12T10:19:43.510Z,6.60
2022-12-12T10:20:43.635Z,6.10
2022-12-12T10:21:43.760Z,6.60
2022-12-12T10:22:43.880Z,6.80
2022-12-12T10:23:44.030Z,7.70
2022-12-12T10:24:44.142Z,7.20
2022-12-12T10:25:44.269Z,6.50
2022-12-12T10:26:44.378Z,6.30
2022-12-12T10:27:44.497Z,6.90
2022-12-12T10:28:44.616Z,7.50
2022-12-12T10:29:44.744Z,8.40
2022-12-12T10:30:44.858Z,7.80
2022-12-12T10:31:45.026Z,9.20
2022-12-12T10:32:45.053Z,7.60
2022-12-12T10:33:45.188Z,6.90
2022-12-12T10:34:45.288Z,7.30
2022-12-12T10:35:45.387Z,6.60
2022-12-12T10:36:45.474Z,6.10
2022-12-12T10:37:45.579Z,6.70
2022-12-12T10:38:45.673Z,8.10
2022-12-12T10:39:45.757Z,6.70
2022-12-12T10:40:45.833Z,6.20
2022-12-12T10:41:45.913Z,10.80
2022-12-12T10:42:45.991Z,8.00
2022-12-12T10:43:46.081Z,7.70
2022-12-12T10:44:47.498Z,6.60
2022-12-12T10:45:46.229Z,6.60
2022-12-12T10:46:46.785Z,7.80
2022-12-12T10:47:46.375Z,6.50
2022-12-12T10:48:46.455Z,6.50
2022-12-12T10:49:46.523Z,7.10
2022-12-12T10:50:46.586Z,7.60
2022-12-12T10:51:46.647Z,7.60
2022-12-12T10:52:46.713Z,6.50
2022-12-12T10:53:46.788Z,6.50
2022-12-12T10:54:46.843Z,5.60
2022-12-12T10:55:46.922Z,6.90
2022-12-12T10:56:46.976Z,6.70
2022-12-12T10:57:47.052Z,6.20
2022-12-12T10:58:47.116Z,7.80
2022-12-12T10:59:47.213Z,10.70
2022-12-12T11:00:47.318Z,9.70
2022-12-12T11:02:09.625Z,17.00
2022-12-12T11:02:48.506Z,9.90
2022-12-12T11:03:47.491Z,8.10
2022-12-12T11:04:47.551Z,12.50
2022-12-12T11:05:47.619Z,12.30
2022-12-12T11:06:47.690Z,15.30
2022-12-12T11:07:47.837Z,10.90
2022-12-12T11:08:47.818Z,7.80
2022-12-12T11:09:47.880Z,6.50
2022-12-12T11:10:47.951Z,6.70
2022-12-12T11:11:48.027Z,9.30
2022-12-12T11:12:48.197Z,6.80
2022-12-12T11:13:48.183Z,9.70
2022-12-12T11:14:48.256Z,5.10
2022-12-12T11:15:48.350Z,7.40
2022-12-12T11:16:48.507Z,6.30
2022-12-12T11:17:48.464Z,9.60
2022-12-12T11:18:48.563Z,6.00
2022-12-12T11:19:48.626Z,7.00
2022-12-12T11:20:48.641Z,11.90
2022-12-12T11:21:48.708Z,11.00
2022-12-12T11:22:48.780Z,8.00
2022-12-12T11:23:48.858Z,8.90
2022-12-12T11:24:48.911Z,8.70
2022-12-12T11:25:48.967Z,7.30
2022-12-12T11:26:49.053Z,8.40
2022-12-12T11:27:49.128Z,5.90
2022-12-12T11:28:49.218Z,11.60
2022-12-12T11:29:49.385Z,15.70
2022-12-12T11:30:49.366Z,8.20
2022-12-12T11:31:49.472Z,8.80
2022-12-12T11:32:49.548Z,8.70
2022-12-12T11:33:49.626Z,8.40
2022-12-12T11:34:49.779Z,10.40
2022-12-12T11:35:49.742Z,8.70
2022-12-12T11:36:49.820Z,9.20
2022-12-12T11:37:49.894Z,8.80
2022-12-12T11:38:49.999Z,8.70
2022-12-12T11:39:50.061Z,14.90
2022-12-12T11:40:50.148Z,10.20
2022-12-12T11:41:50.223Z,7.80
2022-12-12T11:42:50.299Z,8.00
2022-12-12T11:43:50.388Z,7.10
2022-12-12T11:44:50.475Z,7.10
2022-12-12T11:45:50.590Z,11.30
2022-12-12T11:46:50.654Z,7.50
2022-12-12T11:47:50.741Z,13.10
2022-12-12T11:48:50.842Z,13.20
2022-12-12T11:49:50.981Z,8.10
2022-12-12T11:50:51.035Z,11.70
2022-12-12T11:51:51.136Z,10.30
2022-12-12T11:52:51.222Z,10.90
2022-12-12T11:53:51.314Z,9.50
2022-12-12T11:54:51.396Z,11.70
2022-12-12T11:55:51.475Z,8.60
2022-12-12T11:56:51.556Z,8.50
2022-12-12T11:57:51.633Z,8.70
2022-12-12T11:58:51.742Z,9.40
2022-12-12T11:59:51.825Z,7.90
2022-12-12T12:00:51.935Z,11.80
2022-12-12T12:01:52.023Z,9.40
2022-12-12T12:02:52.163Z,8.30
2022-12-12T12:03:52.240Z,9.80
2022-12-12T12:04:53.482Z,9.60
2022-12-12T12:05:52.500Z,9.70
2022-12-12T12:06:52.658Z,9.40
2022-12-12T12:07:52.840Z,22.50
2022-12-12T12:08:52.890Z,12.00
2022-12-12T12:09:53.053Z,16.30
2022-12-12T12:10:53.212Z,14.50
2022-12-12T12:11:53.369Z,12.80
2022-12-12T12:12:53.557Z,10.00
2022-12-12T12:13:53.626Z,12.80
2022-12-12T12:14:53.712Z,12.20
2022-12-12T12:15:53.797Z,11.00
2022-12-12T12:16:53.912Z,12.10
2022-12-12T12:17:53.997Z,11.90
2022-12-12T12:18:54.101Z,11.20
2022-12-12T12:19:54.187Z,13.40
2022-12-12T12:20:54.306Z,14.70
2022-12-12T12:21:54.405Z,11.10
2022-12-12T12:22:54.531Z,11.20
2022-12-12T12:23:54.650Z,11.20
2022-12-12T12:24:54.769Z,13.10
2022-12-12T12:25:54.887Z,11.60
2022-12-12T12:26:55.024Z,11.60
2022-12-12T12:27:55.143Z,8.00
2022-12-12T12:28:55.287Z,11.70
2022-12-12T12:29:55.426Z,12.20
2022-12-12T12:30:55.610Z,10.20
2022-12-12T12:31:55.728Z,8.50
2022-12-12T12:32:55.918Z,14.10
2022-12-12T12:33:55.967Z,14.40
2022-12-12T12:34:56.115Z,44.80
2022-12-12T12:35:56.250Z,53.50
2022-12-12T12:36:56.381Z,35.90
2022-12-12T12:37:56.499Z,24.60
2022-12-12T12:38:56.659Z,12.00
2022-12-12T12:39:56.771Z,12.10
2022-12-12T12:40:56.909Z,9.70
2022-12-12T12:41:57.031Z,9.80
2022-12-12T12:42:57.157Z,12.00
2022-12-12T12:43:57.284Z,9.50
2022-12-12T12:44:57.417Z,8.40
2022-12-12T12:45:57.594Z,8.80
2022-12-12T12:46:57.710Z,8.70
2022-12-12T12:47:57.833Z,11.00
2022-12-12T12:48:57.958Z,13.90
2022-12-12T12:49:58.066Z,11.90
2022-12-12T12:50:58.193Z,10.30
2022-12-12T12:51:58.309Z,12.40
2022-12-12T12:52:58.435Z,10.50
2022-12-12T12:53:58.569Z,9.00
2022-12-12T12:54:58.704Z,11.70
2022-12-12T12:55:58.819Z,12.20
2022-12-12T12:56:58.949Z,12.60
2022-12-12T12:57:59.066Z,11.00